createdAt,value
2023-04-11T00:00:38.229Z,98.00
2023-04-11T00:03:07.067Z,97.58
2023-04-11T00:05:35.637Z,97.43
2023-04-11T00:08:03.878Z,97.54
2023-04-11T00:10:32.050Z,97.46
2023-04-11T00:13:00.435Z,96.36
2023-04-11T00:15:32.523Z,96.40
2023-04-11T00:18:00.929Z,96.37
2023-04-11T00:20:29.274Z,94.87
2023-04-11T00:22:58.289Z,95.92
2023-04-11T00:25:27.033Z,95.85
2023-04-11T00:27:55.313Z,95.04
2023-04-11T00:30:23.745Z,94.94
2023-04-11T00:32:53.298Z,94.60
2023-04-11T00:35:27.526Z,93.63
2023-04-11T00:37:56.169Z,93.30
2023-04-11T00:40:24.651Z,91.72
2023-04-11T00:42:53.086Z,91.49
2023-04-11T00:45:21.254Z,91.40
2023-04-11T00:47:50.313Z,90.95
2023-04-11T00:50:22.233Z,90.06
2023-04-11T00:52:51.005Z,89.51
2023-04-11T00:55:19.422Z,89.45
2023-04-11T00:57:47.605Z,89.90
2023-04-11T01:00:16.177Z,90.33
2023-04-11T01:02:45.182Z,90.25
2023-04-11T01:05:15.102Z,89.81
2023-04-11T01:07:52.412Z,90.08
2023-04-11T01:10:20.861Z,89.92
2023-04-11T01:12:49.600Z,89.97
2023-04-11T01:15:17.907Z,90.25
2023-04-11T01:17:47.907Z,90.21
2023-04-11T01:20:16.251Z,89.96
2023-04-11T01:22:44.864Z,89.93
2023-04-11T01:25:15.657Z,89.31
2023-04-11T01:27:44.866Z,89.11
2023-04-11T01:30:13.492Z,89.57
2023-04-11T01:32:41.886Z,89.58
2023-04-11T01:35:12.094Z,90.02
2023-04-11T01:37:40.500Z,89.78
2023-04-11T01:40:10.152Z,90.00
2023-04-11T01:42:40.082Z,89.64
2023-04-11T01:45:09.078Z,88.66
2023-04-11T01:47:37.497Z,89.07
2023-04-11T01:50:06.897Z,89.03
2023-04-11T01:52:35.228Z,89.28
2023-04-11T01:55:03.562Z,88.68
2023-04-11T01:57:31.919Z,88.45
2023-04-11T02:00:01.677Z,88.69
2023-04-11T02:02:30.283Z,88.14
2023-04-11T02:04:58.669Z,86.54
2023-04-11T02:07:27.364Z,87.01
2023-04-11T02:09:55.772Z,87.01
2023-04-11T02:12:23.981Z,86.54
2023-04-11T02:14:52.252Z,87.38
2023-04-11T02:17:25.878Z,87.03
2023-04-11T02:19:54.656Z,86.19
2023-04-11T02:22:23.029Z,85.69
2023-04-11T02:24:52.077Z,84.54
2023-04-11T02:27:20.400Z,84.50
2023-04-11T02:30:06.212Z,84.86
2023-04-11T02:32:37.647Z,84.60
2023-04-11T02:35:07.658Z,84.40
2023-04-11T02:37:38.279Z,85.17
2023-04-11T02:40:09.781Z,84.29
2023-04-11T02:42:39.902Z,84.86
2023-04-11T02:45:08.743Z,84.83
2023-04-11T02:47:38.348Z,84.98
2023-04-11T02:50:07.486Z,84.85
2023-04-11T02:52:37.718Z,84.32
2023-04-11T02:55:06.294Z,84.79
2023-04-11T02:57:34.480Z,83.97
2023-04-11T03:00:10.500Z,84.79
2023-04-11T03:02:41.553Z,85.18
2023-04-11T03:05:18.744Z,84.29
2023-04-11T03:07:47.081Z,82.82
2023-04-11T03:10:15.431Z,82.79
2023-04-11T03:12:43.639Z,81.97
2023-04-11T03:15:15.238Z,81.49
2023-04-11T03:17:44.958Z,82.57
2023-04-11T03:20:13.544Z,81.90
2023-04-11T03:22:41.721Z,81.87
2023-04-11T03:25:10.624Z,81.55
2023-04-11T03:27:38.968Z,81.97
2023-04-11T03:30:07.898Z,82.52
2023-04-11T03:32:36.090Z,82.05
2023-04-11T03:35:06.064Z,81.77
2023-04-11T03:37:34.192Z,81.49
2023-04-11T03:40:03.761Z,81.55
2023-04-11T03:42:32.057Z,81.34
2023-04-11T03:45:00.265Z,81.55
2023-04-11T03:47:28.429Z,82.03
2023-04-11T03:49:56.613Z,82.21
2023-04-11T03:52:26.149Z,82.97
2023-04-11T03:54:54.514Z,82.61
2023-04-11T03:57:22.656Z,81.90
2023-04-11T03:59:51.032Z,82.40
2023-04-11T04:02:19.344Z,81.89
2023-04-11T04:04:48.615Z,81.83
2023-04-11T04:07:22.221Z,80.79
2023-04-11T04:09:52.054Z,81.33
2023-04-11T04:12:20.451Z,81.96
2023-04-11T04:14:48.678Z,82.22
2023-04-11T04:17:17.012Z,84.51
2023-04-11T04:19:45.360Z,85.18
2023-04-11T04:22:13.683Z,84.42
2023-04-11T04:24:45.998Z,84.99
2023-04-11T04:27:18.071Z,85.85
2023-04-11T04:29:59.895Z,86.14
2023-04-11T04:32:32.730Z,85.29
2023-04-11T04:35:01.675Z,84.77
2023-04-11T04:37:29.944Z,84.61
2023-04-11T04:40:02.000Z,85.10
2023-04-11T04:42:31.702Z,85.19
2023-04-11T04:45:00.482Z,84.74
2023-04-11T04:47:31.224Z,84.42
2023-04-11T04:49:59.694Z,84.52
2023-04-11T04:52:28.853Z,84.62
2023-04-11T04:54:58.095Z,83.74
2023-04-11T04:57:27.133Z,84.53
2023-04-11T04:59:56.907Z,84.54
2023-04-11T05:02:26.805Z,84.27
2023-04-11T05:04:55.359Z,84.15
2023-04-11T05:07:23.778Z,84.24
2023-04-11T05:09:51.933Z,83.88
2023-04-11T05:12:21.631Z,83.00
2023-04-11T05:14:49.987Z,82.10
2023-04-11T05:17:19.721Z,83.74
2023-04-11T05:19:48.052Z,86.66
2023-04-11T05:22:16.419Z,87.24
2023-04-11T05:24:44.645Z,89.82
2023-04-11T05:27:13.318Z,92.72
2023-04-11T05:29:41.621Z,95.14
2023-04-11T05:32:09.910Z,94.13
2023-04-11T05:34:51.762Z,93.44
2023-04-11T05:37:20.386Z,94.07
2023-04-11T05:39:48.622Z,94.66
2023-04-11T05:42:18.527Z,95.44
2023-04-11T05:44:46.734Z,95.99
2023-04-11T05:47:14.942Z,95.35
2023-04-11T05:49:44.596Z,94.38
2023-04-11T05:52:12.775Z,93.28
2023-04-11T05:54:41.001Z,94.00
2023-04-11T05:57:09.195Z,91.77
2023-04-11T05:59:37.700Z,89.41
2023-04-11T06:02:06.631Z,89.75
2023-04-11T06:04:35.472Z,90.15
2023-04-11T06:07:05.452Z,92.18
2023-04-11T06:09:34.318Z,92.88
2023-04-11T06:12:03.722Z,94.65
2023-04-11T06:14:32.132Z,94.38
2023-04-11T06:17:00.746Z,95.01
2023-04-11T06:19:28.964Z,95.27
2023-04-11T06:21:57.288Z,95.28
2023-04-11T06:24:37.223Z,95.18
2023-04-11T06:27:05.811Z,96.04
2023-04-11T06:29:34.000Z,95.61
2023-04-11T06:32:02.306Z,96.22
2023-04-11T06:34:30.745Z,94.89
2023-04-11T06:36:58.931Z,94.13
2023-04-11T06:39:27.292Z,93.86
2023-04-11T06:41:56.805Z,91.20
2023-04-11T06:44:25.128Z,88.97
2023-04-11T06:46:53.668Z,88.15
2023-04-11T06:49:21.947Z,86.59
2023-04-11T06:51:50.514Z,85.19
2023-04-11T06:54:19.262Z,83.28
2023-04-11T06:56:47.784Z,81.04
2023-04-11T06:59:19.366Z,78.95
2023-04-11T07:01:47.828Z,76.86
2023-04-11T07:04:16.586Z,76.14
2023-04-11T07:06:44.861Z,74.84
2023-04-11T07:09:13.418Z,72.98
2023-04-11T07:11:41.677Z,70.83
2023-04-11T07:14:10.005Z,71.33
2023-04-11T07:16:39.655Z,73.36
2023-04-11T07:19:07.999Z,71.89
2023-04-11T07:21:38.207Z,72.05
2023-04-11T07:24:06.635Z,70.00
2023-04-11T07:26:38.534Z,69.19
2023-04-11T07:29:08.800Z,65.94
2023-04-11T07:31:40.732Z,64.28
2023-04-11T07:34:08.928Z,64.77
2023-04-11T07:36:37.074Z,64.54
2023-04-11T07:39:08.996Z,64.64
2023-04-11T07:41:37.533Z,63.02
2023-04-11T07:44:07.544Z,61.12
2023-04-11T07:46:35.765Z,59.67
2023-04-11T07:49:05.576Z,60.96
2023-04-11T07:51:33.802Z,59.22
2023-04-11T07:54:02.071Z,58.31
2023-04-11T07:56:30.593Z,56.51
2023-04-11T07:58:58.897Z,53.29
2023-04-11T08:01:27.223Z,52.19
2023-04-11T08:03:56.317Z,49.64
2023-04-11T08:06:26.467Z,47.79
2023-04-11T08:08:54.803Z,49.05
2023-04-11T08:11:22.940Z,51.73
2023-04-11T08:13:51.765Z,52.53
2023-04-11T08:16:20.104Z,49.90
2023-04-11T08:18:48.391Z,47.06
2023-04-11T08:21:17.243Z,46.95
2023-04-11T08:23:47.482Z,46.19
2023-04-11T08:26:17.254Z,47.05
2023-04-11T08:28:45.701Z,49.12
2023-04-11T08:31:14.206Z,47.67
2023-04-11T08:33:42.420Z,51.12
2023-04-11T08:36:11.309Z,53.44
2023-04-11T08:38:40.183Z,55.19
2023-04-11T08:41:09.731Z,53.07
2023-04-11T08:43:38.872Z,47.13
2023-04-11T08:46:08.813Z,46.43
2023-04-11T08:48:37.112Z,45.26
2023-04-11T08:51:05.989Z,40.45
2023-04-11T08:53:36.800Z,36.20
2023-04-11T08:56:06.340Z,34.20
2023-04-11T08:58:36.045Z,32.69
2023-04-11T09:01:19.146Z,33.62
2023-04-11T09:03:51.249Z,33.25
2023-04-11T09:06:19.510Z,33.06
2023-04-11T09:08:47.926Z,36.58
2023-04-11T09:11:16.073Z,37.82
2023-04-11T09:13:45.690Z,41.15
2023-04-11T09:16:14.590Z,42.16
2023-04-11T09:18:44.355Z,42.33
2023-04-11T09:21:29.420Z,41.56
2023-04-11T09:24:14.412Z,41.16
2023-04-11T09:26:45.864Z,42.21
2023-04-11T09:29:21.788Z,40.79
2023-04-11T09:31:50.203Z,39.41
2023-04-11T09:34:24.359Z,39.88
2023-04-11T09:36:55.032Z,42.45
2023-04-11T09:39:28.410Z,39.62
2023-04-11T09:41:56.767Z,38.96
2023-04-11T09:44:37.546Z,38.03
2023-04-11T09:47:06.340Z,39.23
2023-04-11T09:49:36.033Z,34.50
2023-04-11T09:52:04.804Z,33.01
2023-04-11T09:54:33.278Z,35.47
2023-04-11T09:57:01.570Z,39.07
2023-04-11T09:59:31.208Z,42.26
2023-04-11T10:02:01.613Z,42.01
2023-04-11T10:04:47.606Z,38.37
2023-04-11T10:07:17.013Z,32.04
2023-04-11T10:09:46.143Z,29.04
2023-04-11T10:12:14.368Z,24.77
2023-04-11T10:15:09.756Z,23.77
2023-04-11T10:17:40.585Z,24.98
2023-04-11T10:20:23.846Z,26.37
2023-04-11T10:23:01.848Z,27.25
2023-04-11T10:25:30.556Z,27.43
2023-04-11T10:28:01.014Z,25.92
2023-04-11T10:30:44.773Z,26.28
2023-04-11T10:33:15.987Z,27.11
2023-04-11T10:35:57.859Z,25.61
2023-04-11T10:38:47.107Z,24.51
2023-04-11T10:41:15.764Z,25.93
2023-04-11T10:43:44.377Z,29.10
2023-04-11T10:46:19.673Z,30.27
2023-04-11T10:48:59.005Z,32.51
2023-04-11T10:51:27.987Z,33.90
2023-04-11T10:53:59.409Z,35.11
2023-04-11T10:56:58.650Z,30.43
2023-04-11T10:59:45.790Z,29.59
2023-04-11T11:02:14.752Z,32.81
2023-04-11T11:04:44.380Z,35.24
2023-04-11T11:07:15.515Z,39.59
2023-04-11T11:09:48.493Z,52.06
2023-04-11T11:12:17.461Z,58.37
2023-04-11T11:14:46.557Z,61.60
2023-04-11T11:17:15.581Z,61.28
2023-04-11T11:19:46.129Z,61.27
2023-04-11T11:22:17.832Z,63.05
2023-04-11T11:24:46.113Z,64.85
2023-04-11T11:27:19.594Z,57.45
2023-04-11T11:29:47.826Z,44.84
2023-04-11T11:32:22.001Z,36.39
2023-04-11T11:34:52.937Z,30.12
2023-04-11T11:37:21.591Z,28.19
2023-04-11T11:39:50.758Z,26.70
2023-04-11T11:42:19.156Z,26.10
2023-04-11T11:44:47.328Z,23.89
2023-04-11T11:47:15.942Z,24.28
2023-04-11T11:49:45.220Z,22.76
2023-04-11T11:52:30.805Z,25.33
2023-04-11T11:55:00.872Z,25.36
2023-04-11T11:57:29.096Z,28.57
2023-04-11T11:59:57.880Z,31.05
2023-04-11T12:02:27.377Z,32.15
2023-04-11T12:05:20.561Z,27.57
2023-04-11T12:07:54.810Z,26.35
2023-04-11T12:10:23.176Z,27.03
2023-04-11T12:12:53.936Z,25.67
2023-04-11T12:15:39.778Z,24.40
2023-04-11T12:18:07.966Z,24.16
2023-04-11T12:20:36.533Z,23.89
2023-04-11T12:23:06.280Z,22.49
2023-04-11T12:25:34.464Z,20.62
2023-04-11T12:28:05.097Z,19.91
2023-04-11T12:30:33.667Z,18.93
2023-04-11T12:33:02.041Z,20.62
2023-04-11T12:35:30.809Z,25.02
2023-04-11T12:37:58.982Z,29.00
2023-04-11T12:40:29.676Z,33.13
2023-04-11T12:42:58.359Z,33.88
2023-04-11T12:45:46.585Z,34.42
2023-04-11T12:48:15.027Z,31.34
2023-04-11T12:50:43.381Z,27.10
2023-04-11T12:53:12.081Z,23.15
2023-04-11T12:55:41.721Z,22.94
2023-04-11T12:58:10.089Z,20.98
2023-04-11T13:00:38.450Z,23.18
2023-04-11T13:03:07.184Z,26.89
2023-04-11T13:05:36.980Z,28.47
2023-04-11T13:08:05.196Z,25.16
2023-04-11T13:10:33.614Z,22.78
2023-04-11T13:13:17.050Z,21.66
2023-04-11T13:15:47.265Z,22.31
2023-04-11T13:18:15.571Z,20.49
2023-04-11T13:20:44.082Z,19.05
2023-04-11T13:23:13.687Z,17.67
2023-04-11T13:25:43.388Z,19.80
2023-04-11T13:28:12.975Z,20.22
2023-04-11T13:30:41.938Z,19.39
2023-04-11T13:33:10.268Z,19.84
2023-04-11T13:35:38.452Z,20.12
2023-04-11T13:38:06.734Z,19.21
2023-04-11T13:40:35.852Z,19.98
2023-04-11T13:43:04.082Z,21.57
2023-04-11T13:45:33.902Z,20.86
2023-04-11T13:48:03.342Z,19.95
2023-04-11T13:50:31.843Z,20.00
2023-04-11T13:53:00.274Z,20.13
2023-04-11T13:55:28.459Z,19.30
2023-04-11T13:57:56.757Z,19.62
2023-04-11T14:00:25.122Z,19.99
2023-04-11T14:02:54.751Z,20.09
2023-04-11T14:05:25.025Z,20.87
2023-04-11T14:07:53.220Z,22.33
2023-04-11T14:10:21.839Z,21.17
2023-04-11T14:12:51.230Z,21.35
2023-04-11T14:15:20.509Z,21.18
2023-04-11T14:17:50.038Z,20.22
2023-04-11T14:20:19.849Z,19.83
2023-04-11T14:22:48.034Z,19.98
2023-04-11T14:25:16.602Z,19.76
2023-04-11T14:27:45.663Z,18.69
2023-04-11T14:30:14.116Z,19.75
2023-04-11T14:32:42.581Z,20.60
2023-04-11T14:35:11.044Z,21.11
2023-04-11T14:37:40.986Z,21.29
2023-04-11T14:40:11.079Z,23.18
2023-04-11T14:42:39.607Z,22.52
2023-04-11T14:45:09.592Z,21.83
2023-04-11T14:47:39.663Z,22.75
2023-04-11T14:50:13.700Z,22.95
2023-04-11T14:52:58.101Z,22.79
2023-04-11T14:55:26.325Z,23.21
2023-04-11T14:57:57.640Z,22.62
2023-04-11T15:00:27.561Z,22.80
2023-04-11T15:02:57.422Z,22.29
2023-04-11T15:05:26.592Z,23.70
2023-04-11T15:07:54.741Z,24.38
2023-04-11T15:10:25.929Z,25.07
2023-04-11T15:12:54.203Z,26.05
2023-04-11T15:15:24.819Z,26.75
2023-04-11T15:18:08.186Z,26.25
2023-04-11T15:20:36.499Z,26.36
2023-04-11T15:23:07.520Z,27.84
2023-04-11T15:25:38.407Z,27.97
2023-04-11T15:28:06.696Z,28.39
2023-04-11T15:30:36.050Z,28.68
2023-04-11T15:33:05.234Z,28.43
2023-04-11T15:35:33.829Z,27.98
2023-04-11T15:38:02.027Z,28.17
2023-04-11T15:40:30.477Z,28.76
2023-04-11T15:43:01.235Z,28.76
2023-04-11T15:45:29.398Z,28.79
2023-04-11T15:47:58.972Z,28.92
2023-04-11T15:50:48.549Z,29.61
2023-04-11T15:53:17.223Z,29.41
2023-04-11T15:55:47.122Z,29.50
2023-04-11T15:58:18.917Z,29.98
2023-04-11T16:00:47.090Z,30.55
2023-04-11T16:03:18.982Z,30.73
2023-04-11T16:05:56.820Z,31.48
2023-04-11T16:08:26.081Z,31.04
2023-04-11T16:10:54.496Z,31.54
2023-04-11T16:13:24.081Z,32.26
2023-04-11T16:15:52.192Z,32.93
2023-04-11T16:18:20.587Z,32.38
2023-04-11T16:20:48.900Z,33.00
2023-04-11T16:23:17.144Z,32.59
2023-04-11T16:25:45.659Z,32.82
2023-04-11T16:28:15.303Z,33.04
2023-04-11T16:30:45.033Z,33.25
2023-04-11T16:33:13.701Z,33.68
2023-04-11T16:35:44.955Z,33.66
2023-04-11T16:38:13.187Z,34.07
2023-04-11T16:40:41.490Z,34.29
2023-04-11T16:43:29.596Z,34.47
2023-04-11T16:45:59.613Z,34.21
2023-04-11T16:48:27.937Z,34.58
2023-04-11T16:50:56.136Z,35.35
2023-04-11T16:53:24.358Z,35.36
2023-04-11T16:55:53.570Z,36.04
2023-04-11T16:58:24.665Z,35.03
2023-04-11T17:00:53.683Z,35.14
2023-04-11T17:03:23.386Z,35.69
2023-04-11T17:05:51.679Z,35.64
2023-04-11T17:08:19.878Z,35.42
2023-04-11T17:10:48.129Z,34.69
2023-04-11T17:13:18.607Z,35.26
2023-04-11T17:15:47.018Z,35.18
2023-04-11T17:18:15.421Z,35.12
2023-04-11T17:20:46.539Z,34.93
2023-04-11T17:23:14.736Z,35.18
2023-04-11T17:25:42.952Z,35.32
2023-04-11T17:28:11.509Z,36.05
2023-04-11T17:30:39.736Z,35.90
2023-04-11T17:33:08.626Z,36.01
2023-04-11T17:35:36.962Z,36.60
2023-04-11T17:38:06.685Z,37.27
2023-04-11T17:40:35.000Z,37.71
2023-04-11T17:43:03.444Z,37.92
2023-04-11T17:45:31.929Z,38.79
2023-04-11T17:48:01.143Z,38.88
2023-04-11T17:50:29.908Z,39.75
2023-04-11T17:52:58.507Z,40.71
2023-04-11T17:55:28.203Z,40.76
2023-04-11T17:57:56.571Z,40.90
2023-04-11T18:00:26.423Z,41.37
2023-04-11T18:02:57.545Z,41.39
2023-04-11T18:05:27.193Z,42.04
2023-04-11T18:07:56.483Z,41.91
2023-04-11T18:10:25.853Z,42.65
2023-04-11T18:12:57.348Z,42.98
2023-04-11T18:15:26.507Z,43.22
2023-04-11T18:17:55.059Z,44.00
2023-04-11T18:20:23.370Z,43.97
2023-04-11T18:22:54.349Z,44.33
2023-04-11T18:25:23.295Z,44.79
2023-04-11T18:27:51.581Z,45.58
2023-04-11T18:30:21.178Z,45.63
2023-04-11T18:32:51.529Z,46.19
2023-04-11T18:35:19.938Z,45.85
2023-04-11T18:37:48.096Z,46.16
2023-04-11T18:40:17.446Z,46.15
2023-04-11T18:42:49.172Z,46.69
2023-04-11T18:45:20.566Z,47.08
2023-04-11T18:47:51.077Z,47.69
2023-04-11T18:50:19.893Z,48.34
2023-04-11T18:52:52.678Z,49.12
2023-04-11T18:55:23.559Z,49.65
2023-04-11T18:57:55.353Z,49.99
2023-04-11T19:00:26.024Z,50.81
2023-04-11T19:02:56.321Z,51.25
2023-04-11T19:05:25.856Z,51.77
2023-04-11T19:07:54.460Z,52.04
2023-04-11T19:10:24.077Z,52.55
2023-04-11T19:12:52.652Z,52.30
2023-04-11T19:15:21.268Z,52.41
2023-04-11T19:17:49.596Z,52.75
2023-04-11T19:20:20.379Z,52.94
2023-04-11T19:22:48.685Z,53.77
2023-04-11T19:25:16.996Z,53.90
2023-04-11T19:27:46.231Z,54.31
2023-04-11T19:30:14.537Z,54.41
2023-04-11T19:32:45.688Z,54.83
2023-04-11T19:35:14.114Z,55.43
2023-04-11T19:37:43.715Z,55.67
2023-04-11T19:40:13.339Z,55.66
2023-04-11T19:42:41.809Z,56.01
2023-04-11T19:45:10.906Z,55.95
2023-04-11T19:47:40.417Z,56.31
2023-04-11T19:50:11.690Z,56.01
2023-04-11T19:52:40.351Z,56.62
2023-04-11T19:55:10.548Z,56.76
2023-04-11T19:57:40.360Z,56.82
2023-04-11T20:00:11.885Z,57.68
2023-04-11T20:02:44.364Z,57.83
2023-04-11T20:05:13.569Z,58.01
2023-04-11T20:07:42.531Z,58.56
2023-04-11T20:10:13.652Z,58.98
2023-04-11T20:12:42.132Z,58.77
2023-04-11T20:15:10.968Z,58.45
2023-04-11T20:17:39.375Z,58.77
2023-04-11T20:20:08.684Z,59.21
2023-04-11T20:22:38.547Z,59.35
2023-04-11T20:25:07.670Z,59.75
2023-04-11T20:27:37.298Z,59.82
2023-04-11T20:30:10.677Z,60.02
2023-04-11T20:32:39.383Z,60.51
2023-04-11T20:35:08.485Z,61.02
2023-04-11T20:37:36.978Z,61.81
2023-04-11T20:40:07.572Z,62.14
2023-04-11T20:42:41.227Z,62.02
2023-04-11T20:45:10.636Z,61.87
2023-04-11T20:47:39.030Z,61.99
2023-04-11T20:50:09.608Z,61.38
2023-04-11T20:52:38.504Z,61.48
2023-04-11T20:55:07.057Z,61.78
2023-04-11T20:57:35.897Z,61.87
2023-04-11T21:00:12.082Z,62.13
2023-04-11T21:02:42.412Z,62.46
2023-04-11T21:05:11.837Z,61.88
2023-04-11T21:07:40.319Z,62.30
2023-04-11T21:10:09.051Z,62.49
2023-04-11T21:12:37.535Z,61.45
2023-04-11T21:15:08.496Z,61.09
2023-04-11T21:17:39.391Z,61.56
2023-04-11T21:20:17.429Z,60.74
2023-04-11T21:22:46.369Z,60.34
2023-04-11T21:25:15.647Z,60.85
2023-04-11T21:27:43.975Z,60.68
2023-04-11T21:30:14.443Z,60.38
2023-04-11T21:32:46.827Z,60.33
2023-04-11T21:35:29.275Z,60.47
2023-04-11T21:37:57.687Z,60.22
2023-04-11T21:40:26.018Z,60.63
2023-04-11T21:42:55.406Z,60.38
2023-04-11T21:45:25.007Z,61.00
2023-04-11T21:47:53.196Z,61.02
2023-04-11T21:50:21.547Z,60.85
2023-04-11T21:52:49.767Z,60.92
2023-04-11T21:55:17.888Z,60.74
2023-04-11T21:57:46.135Z,60.62
2023-04-11T22:00:14.468Z,60.86
2023-04-11T22:02:50.094Z,60.42
2023-04-11T22:05:19.218Z,60.50
2023-04-11T22:07:47.720Z,60.90
2023-04-11T22:10:22.342Z,60.64
2023-04-11T22:12:53.539Z,60.39
2023-04-11T22:15:21.783Z,60.10
2023-04-11T22:17:54.257Z,59.94
2023-04-11T22:20:22.904Z,60.03
2023-04-11T22:22:51.071Z,59.69
2023-04-11T22:25:22.081Z,59.54
2023-04-11T22:27:54.046Z,59.72
2023-04-11T22:30:23.653Z,59.82
2023-04-11T22:32:54.199Z,59.37
2023-04-11T22:35:23.195Z,59.85
2023-04-11T22:37:51.618Z,59.39
2023-04-11T22:40:22.291Z,59.58
2023-04-11T22:42:51.781Z,59.25
2023-04-11T22:45:20.596Z,59.18
2023-04-11T22:47:53.966Z,59.27
2023-04-11T22:50:24.194Z,59.31
2023-04-11T22:52:54.552Z,59.19
2023-04-11T22:55:25.114Z,58.94
2023-04-11T22:57:53.260Z,58.88
2023-04-11T23:00:21.916Z,58.95
2023-04-11T23:02:51.026Z,58.55
2023-04-11T23:05:20.681Z,58.77
2023-04-11T23:07:51.035Z,58.67
2023-04-11T23:10:19.361Z,58.58
2023-04-11T23:12:49.006Z,58.85
2023-04-11T23:15:17.292Z,58.46
2023-04-11T23:17:45.527Z,58.61
2023-04-11T23:20:14.291Z,58.58
2023-04-11T23:22:43.736Z,58.36
2023-04-11T23:25:15.503Z,58.48
2023-04-11T23:27:44.345Z,58.09
2023-04-11T23:30:15.014Z,58.28
2023-04-11T23:32:43.383Z,58.31
2023-04-11T23:35:11.688Z,58.72
2023-04-11T23:37:40.917Z,58.52
2023-04-11T23:40:13.690Z,58.55
2023-04-11T23:42:43.459Z,58.57
2023-04-11T23:45:12.637Z,58.61
2023-04-11T23:47:41.147Z,58.26
2023-04-11T23:50:09.890Z,58.64
2023-04-11T23:52:39.724Z,58.35
2023-04-11T23:55:08.776Z,58.66
2023-04-11T23:57:37.074Z,58.45
